Time;durP1;ratioP1;P1;durP2;ratioP2;P2;SDS_P1;SDS_P2;PMS_P1;PMS_P2;Temp;Humidity;BMP_temperature;BMP_pressure;BME280_temperature;BME280_humidity;BME280_pressure;Samples;Min_cycle;Max_cycle;Signal;HPM_P1;HPM_P2
2024/01/17 00:01:54;;;;;;;62.00;29.00;;;;;;;-4.89;82.62;98093.45;226260;1272;22628;-72
2024/01/17 00:07:02;;;;;;;62.20;27.60;;;;;;;-4.99;82.38;98094.10;226392;1273;22612;-72
2024/01/17 00:12:05;;;;;;;50.00;24.90;;;;;;;-5.06;82.43;98093.24;226484;1269;22582;-73
2024/01/17 00:17:07;;;;;;;52.10;24.30;;;;;;;-5.12;82.77;98094.35;226406;1273;23114;-73
2024/01/17 00:22:09;;;;;;;49.50;23.30;;;;;;;-5.17;82.96;98090.06;226297;1272;22618;-72
2024/01/17 00:27:13;;;;;;;50.40;24.40;;;;;;;-5.22;82.96;98090.25;226413;1269;22593;-73
2024/01/17 00:32:16;;;;;;;48.00;23.60;;;;;;;-5.25;82.75;98088.45;226427;1271;22560;-73
2024/01/17 00:37:18;;;;;;;48.80;23.10;;;;;;;-5.31;83.08;98086.56;226423;1251;23408;-73
2024/01/17 00:42:20;;;;;;;49.20;22.80;;;;;;;-5.35;82.88;98091.29;226387;1272;22687;-72
2024/01/17 00:47:23;;;;;;;58.20;26.70;;;;;;;-5.35;82.82;98090.81;226282;1272;22563;-73
2024/01/17 00:52:25;;;;;;;56.70;27.50;;;;;;;-5.34;83.04;98087.11;226394;1270;22562;-72
2024/01/17 00:57:27;;;;;;;55.70;26.30;;;;;;;-5.31;83.27;98078.86;226409;1269;23846;-72
2024/01/17 01:02:29;;;;;;;47.60;23.40;;;;;;;-5.31;83.06;98073.71;226392;1267;22621;-72
2024/01/17 01:07:31;;;;;;;46.90;23.00;;;;;;;-5.33;82.78;98072.46;226446;1269;22677;-73
2024/01/17 01:12:33;;;;;;;45.70;22.30;;;;;;;-5.35;83.02;98071.09;226430;1272;22662;-72
2024/01/17 01:17:35;;;;;;;46.10;23.20;;;;;;;-5.38;82.97;98065.82;226241;1272;22619;-73
2024/01/17 01:22:37;;;;;;;44.70;23.00;;;;;;;-5.43;83.10;98058.10;226359;1272;24961;-73
2024/01/17 01:27:39;;;;;;;47.00;22.80;;;;;;;-5.48;83.08;98050.17;226376;1255;22630;-73
2024/01/17 01:32:41;;;;;;;46.90;21.80;;;;;;;-5.53;82.95;98047.12;226369;1272;22587;-72
2024/01/17 01:37:44;;;;;;;42.70;21.40;;;;;;;-5.57;83.11;98046.90;226424;1272;22668;-73
2024/01/17 01:42:46;;;;;;;41.00;21.20;;;;;;;-5.61;83.19;98041.35;226341;1269;27243;-73
2024/01/17 01:47:48;;;;;;;44.40;21.40;;;;;;;-5.65;82.95;98036.50;226402;1272;22658;-72
2024/01/17 01:52:51;;;;;;;42.00;20.70;;;;;;;-5.70;83.08;98035.10;226323;1272;25505;-73
2024/01/17 01:57:53;;;;;;;38.40;19.10;;;;;;;-5.76;83.03;98027.27;226391;1272;22572;-73
2024/01/17 02:02:55;;;;;;;36.20;19.70;;;;;;;-5.82;83.28;98020.67;226396;1272;22544;-73
2024/01/17 02:07:57;;;;;;;39.00;19.90;;;;;;;-5.86;82.99;98019.93;226357;1249;22805;-73
2024/01/17 02:12:59;;;;;;;42.80;19.90;;;;;;;-5.89;83.30;98017.11;226325;1272;22772;-73
2024/01/17 02:18:02;;;;;;;42.00;19.10;;;;;;;-5.94;82.97;98009.03;226355;1272;22687;-73
2024/01/17 02:23:24;;;;;;;39.00;17.70;;;;;;;-5.99;83.38;97999.91;226466;1269;24257;-73
2024/01/17 02:28:29;;;;;;;32.60;16.80;;;;;;;-6.02;83.09;97991.90;226409;1271;22748;-73
2024/01/17 02:33:32;;;;;;;32.80;16.50;;;;;;;-6.05;83.07;97980.59;226395;1269;24284;-73
2024/01/17 02:38:34;;;;;;;31.90;16.30;;;;;;;-6.08;83.03;97977.90;226498;1270;22604;-72
2024/01/17 02:43:36;;;;;;;30.00;15.20;;;;;;;-6.09;83.18;97972.18;226390;1270;22637;-72
2024/01/17 02:48:38;;;;;;;25.60;14.10;;;;;;;-6.09;83.28;97958.77;226392;1272;22682;-72
2024/01/17 02:53:40;;;;;;;25.50;13.10;;;;;;;-6.05;83.37;97950.95;226439;1269;22733;-72
2024/01/17 02:58:43;;;;;;;31.30;15.20;;;;;;;-6.00;83.15;97949.60;226336;1266;22616;-72
2024/01/17 03:03:45;;;;;;;36.50;18.20;;;;;;;-5.97;83.07;97944.61;226364;1272;22610;-72
2024/01/17 03:08:47;;;;;;;36.70;17.60;;;;;;;-5.96;82.64;97947.08;226376;1272;22558;-72
2024/01/17 03:13:50;;;;;;;33.50;16.40;;;;;;;-6.00;82.47;97957.30;226458;1257;22648;-72
2024/01/17 03:18:52;;;;;;;32.30;14.90;;;;;;;-6.08;82.15;97961.64;226297;1272;23253;-72
2024/01/17 03:23:55;;;;;;;29.00;13.70;;;;;;;-6.18;81.80;97962.13;226309;1272;24271;-72
2024/01/17 03:28:57;;;;;;;29.00;14.20;;;;;;;-6.29;82.10;97961.86;226472;1272;22560;-72
2024/01/17 03:33:59;;;;;;;26.60;14.20;;;;;;;-6.34;81.96;97961.70;226359;1267;22567;-72
2024/01/17 03:39:01;;;;;;;31.60;17.30;;;;;;;-6.40;81.94;97954.06;226408;1272;22635;-72
2024/01/17 03:44:04;;;;;;;32.30;15.50;;;;;;;-6.44;81.98;97951.94;226167;1267;224999;-72
2024/01/17 03:49:06;;;;;;;32.70;16.50;;;;;;;-6.50;82.18;97949.59;226274;1266;22745;-72
2024/01/17 03:54:08;;;;;;;38.60;17.40;;;;;;;-6.54;81.80;97936.15;226397;1273;22621;-72
2024/01/17 03:59:10;;;;;;;37.40;19.20;;;;;;;-6.60;81.81;97926.10;226343;1272;23118;-73
2024/01/17 04:04:13;;;;;;;46.70;20.80;;;;;;;-6.65;82.07;97920.45;226338;1272;22727;-72
2024/01/17 04:09:15;;;;;;;42.10;20.70;;;;;;;-6.69;82.15;97909.29;226430;1269;24218;-72
2024/01/17 04:14:17;;;;;;;43.90;21.10;;;;;;;-6.72;82.08;97897.02;226332;1270;23267;-72
2024/01/17 04:19:19;;;;;;;45.80;19.80;;;;;;;-6.72;82.07;97891.49;226419;1269;25566;-73
2024/01/17 04:24:21;;;;;;;37.80;16.00;;;;;;;-6.69;82.37;97888.39;226309;1267;24262;-73
2024/01/17 04:29:23;;;;;;;51.90;24.20;;;;;;;-6.74;81.98;97880.64;226386;1269;22770;-72
2024/01/17 04:34:25;;;;;;;50.70;24.80;;;;;;;-6.86;81.44;97870.37;226412;1269;22752;-73
2024/01/17 04:39:27;;;;;;;48.80;23.90;;;;;;;-6.99;81.73;97856.13;226425;1273;25575;-72
2024/01/17 04:44:30;;;;;;;50.70;23.20;;;;;;;-7.06;81.58;97854.60;226381;1273;22729;-72
2024/01/17 04:49:32;;;;;;;50.70;23.60;;;;;;;-7.14;82.08;97856.67;226351;1272;22682;-72
2024/01/17 04:54:35;;;;;;;56.90;28.40;;;;;;;-7.21;81.86;97852.48;226323;1273;22773;-72
2024/01/17 04:59:37;;;;;;;64.60;30.00;;;;;;;-7.30;81.77;97843.49;226349;1264;26277;-73
2024/01/17 05:04:39;;;;;;;62.80;29.00;;;;;;;-7.39;81.87;97838.61;226418;1272;22666;-73
2024/01/17 05:09:42;;;;;;;63.90;31.70;;;;;;;-7.49;82.05;97833.81;226338;1272;22620;-73
2024/01/17 05:14:44;;;;;;;72.20;34.10;;;;;;;-7.59;81.66;97827.31;226397;1272;22695;-73
2024/01/17 05:19:46;;;;;;;69.80;33.10;;;;;;;-7.67;81.82;97824.06;226250;1254;22990;-74
2024/01/17 05:24:48;;;;;;;70.50;33.10;;;;;;;-7.73;81.87;97820.34;226410;1272;25425;-73
2024/01/17 05:29:50;;;;;;;67.60;32.90;;;;;;;-7.79;81.97;97804.33;226329;1264;22661;-73
2024/01/17 05:34:54;;;;;;;64.90;33.40;;;;;;;-7.82;82.24;97794.24;226333;1273;25683;-73
2024/01/17 05:39:56;;;;;;;60.60;31.30;;;;;;;-7.81;82.52;97799.64;226416;1250;22889;-73
2024/01/17 05:44:58;;;;;;;59.20;29.60;;;;;;;-7.84;82.30;97796.58;226344;1273;23260;-74
2024/01/17 05:50:11;;;;;;;51.20;27.40;;;;;;;-7.87;82.56;97791.13;226337;1270;25607;-72
2024/01/17 05:55:15;;;;;;;49.20;25.00;;;;;;;-7.87;82.51;97787.92;226342;1273;22650;-73
2024/01/17 06:00:18;;;;;;;49.10;26.30;;;;;;;-7.87;82.63;97777.44;226384;1273;26042;-73
2024/01/17 06:05:20;;;;;;;46.50;22.80;;;;;;;-7.84;82.60;97771.48;226314;1272;22698;-73
2024/01/17 06:10:24;;;;;;;51.00;25.70;;;;;;;-7.85;82.69;97761.06;226403;1272;22703;-73
2024/01/17 06:15:26;;;;;;;47.80;25.50;;;;;;;-7.82;82.86;97763.29;226335;1270;23114;-74
2024/01/17 06:20:27;;;;;;;46.10;23.80;;;;;;;-7.80;82.75;97756.91;226326;1272;25640;-73
2024/01/17 06:25:29;;;;;;;47.80;26.20;;;;;;;-7.82;82.46;97751.21;226412;1272;22689;-72
2024/01/17 06:30:31;;;;;;;46.00;22.40;;;;;;;-7.81;82.83;97750.63;226384;1272;25673;-74
2024/01/17 06:35:33;;;;;;;46.60;23.40;;;;;;;-7.73;82.97;97752.30;226359;1272;22598;-74
2024/01/17 06:40:35;;;;;;;46.30;24.80;;;;;;;-7.69;82.81;97749.63;226352;1272;22701;-73
2024/01/17 06:45:42;;;;;;;40.50;21.80;;;;;;;-7.62;83.05;97746.79;226357;1268;22661;-74
2024/01/17 06:50:44;;;;;;;40.00;20.10;;;;;;;-7.59;82.73;97738.56;226304;1261;22665;-73
2024/01/17 06:55:46;;;;;;;47.40;23.10;;;;;;;-7.52;83.03;97741.50;226282;1256;24488;-73
2024/01/17 07:00:48;;;;;;;45.20;24.30;;;;;;;-7.45;82.89;97739.70;226409;1258;22854;-77
2024/01/17 07:05:51;;;;;;;35.00;19.60;;;;;;;-7.43;82.56;97733.73;226230;1270;22617;-74
2024/01/17 07:10:53;;;;;;;45.70;23.20;;;;;;;-7.40;82.50;97725.66;226177;1270;22840;-74
2024/01/17 07:15:55;;;;;;;53.10;25.00;;;;;;;-7.37;82.23;97708.00;226099;1261;22658;-74
2024/01/17 07:20:57;;;;;;;49.80;23.50;;;;;;;-7.35;82.28;97692.65;226155;1270;22798;-73
2024/01/17 07:26:00;;;;;;;61.10;26.00;;;;;;;-7.29;82.47;97685.96;226151;1267;22674;-73
2024/01/17 07:31:02;;;;;;;53.90;26.30;;;;;;;-7.23;82.06;97683.95;226157;1268;22648;-73
2024/01/17 07:36:05;;;;;;;55.00;28.00;;;;;;;-7.16;82.38;97673.41;226136;1255;22811;-73
2024/01/17 07:41:07;;;;;;;57.70;28.00;;;;;;;-7.09;82.18;97665.20;226026;1270;22720;-72
2024/01/17 07:46:09;;;;;;;58.20;30.30;;;;;;;-7.00;81.82;97657.09;226092;1266;22594;-72
2024/01/17 07:51:10;;;;;;;52.60;26.60;;;;;;;-6.79;82.05;97643.46;225852;1254;22637;-72
2024/01/17 07:56:13;;;;;;;57.50;29.10;;;;;;;-6.64;82.06;97634.66;226149;1259;22718;-72
2024/01/17 08:01:16;;;;;;;55.80;28.10;;;;;;;-6.47;82.27;97630.31;225945;1267;24134;-73
2024/01/17 08:06:19;;;;;;;51.50;26.50;;;;;;;-6.05;82.06;97623.64;226083;1266;23164;-73
2024/01/17 08:11:21;;;;;;;54.80;25.50;;;;;;;-5.87;81.48;97608.20;226155;1270;22625;-73
2024/01/17 08:16:23;;;;;;;41.40;22.40;;;;;;;-5.84;80.96;97594.95;226250;1257;24310;-74
2024/01/17 08:21:25;;;;;;;47.00;23.90;;;;;;;-5.80;80.88;97586.42;226247;1272;22565;-73
2024/01/17 08:26:27;;;;;;;47.20;23.20;;;;;;;-5.70;80.61;97576.73;226181;1261;23304;-73
2024/01/17 08:31:30;;;;;;;48.30;24.60;;;;;;;-5.56;80.87;97563.66;226151;1267;22639;-80
2024/01/17 08:36:33;;;;;;;46.20;23.30;;;;;;;-5.32;80.97;97556.86;226242;1255;22919;-73
2024/01/17 08:41:35;;;;;;;40.70;20.60;;;;;;;-4.84;81.56;97546.84;226485;1253;22659;-74
2024/01/17 08:46:45;;;;;;;38.80;22.50;;;;;;;-4.56;80.68;97544.21;226329;1251;26228;-74
2024/01/17 08:51:47;;;;;;;;;;;;;;;-4.46;80.09;97549.91;226231;1260;22508;-73
2024/01/17 08:56:49;;;;;;;42.10;24.20;;;;;;;-4.43;79.76;97547.95;226289;1264;22817;-73
2024/01/17 09:01:52;;;;;;;42.40;23.50;;;;;;;-4.43;79.36;97538.30;226345;1267;22547;-74
2024/01/17 09:06:55;;;;;;;37.50;19.90;;;;;;;-4.40;79.11;97529.66;226189;1260;25676;-73
2024/01/17 09:11:57;;;;;;;41.40;22.70;;;;;;;-4.23;79.65;97515.34;226175;1260;22551;-73
2024/01/17 09:17:03;;;;;;;33.50;18.00;;;;;;;-3.94;79.31;97510.69;226284;1261;22628;-74
2024/01/17 09:22:05;;;;;;;42.90;21.60;;;;;;;-3.68;78.84;97495.23;226234;1261;23153;-74
2024/01/17 09:27:07;;;;;;;36.20;20.80;;;;;;;-3.50;78.85;97476.96;226200;1257;22628;-74
2024/01/17 09:32:09;;;;;;;37.80;22.30;;;;;;;-3.30;78.90;97460.59;226238;1251;22579;-75
2024/01/17 09:37:15;;;;;;;48.70;21.40;;;;;;;-3.05;78.84;97448.42;226155;1251;22668;-74
2024/01/17 09:42:20;;;;;;;38.00;19.90;;;;;;;-2.85;78.67;97433.83;226262;1267;25484;-73
2024/01/17 09:47:23;;;;;;;36.70;19.80;;;;;;;-2.68;78.15;97421.48;226191;1250;22614;-74
2024/01/17 09:52:25;;;;;;;35.30;19.70;;;;;;;-2.50;78.33;97411.17;226175;1257;22586;-73
2024/01/17 09:57:34;;;;;;;38.60;19.60;;;;;;;-2.36;77.86;97399.56;226143;1267;22540;-74
2024/01/17 10:02:38;;;;;;;40.20;21.60;;;;;;;-2.20;77.67;97388.59;226036;1266;24241;-74
2024/01/17 10:07:40;;;;;;;33.10;20.30;;;;;;;-2.03;77.35;97376.60;226154;1266;23092;-75
2024/01/17 10:12:42;;;;;;;31.20;18.00;;;;;;;-1.93;76.91;97368.12;226288;1266;22662;-74
2024/01/17 10:17:44;;;;;;;33.60;19.50;;;;;;;-1.86;76.58;97364.52;226207;1267;22545;-75
2024/01/17 10:22:46;;;;;;;31.00;17.70;;;;;;;-1.76;76.75;97362.16;226046;1250;23226;-74
2024/01/17 10:27:49;;;;;;;32.20;19.30;;;;;;;-1.62;76.69;97351.52;226195;1254;22593;-76
2024/01/17 10:32:51;;;;;;;33.60;19.00;;;;;;;-1.54;76.21;97335.48;226245;1267;23128;-74
2024/01/17 10:37:54;;;;;;;39.50;19.70;;;;;;;-1.41;76.18;97318.23;226165;1254;23771;-75
2024/01/17 10:43:09;;;;;;;39.40;21.30;;;;;;;-1.23;76.02;97310.16;226174;1273;25555;-76
2024/01/17 10:48:14;;;;;;;40.70;21.60;;;;;;;-1.06;75.75;97297.10;226196;1267;25658;-78
2024/01/17 10:53:18;;;;;;;45.10;24.10;;;;;;;-0.93;75.44;97292.19;226095;1267;22964;-77
2024/01/17 10:58:20;;;;;;;40.50;22.20;;;;;;;-0.87;75.02;97283.86;226204;1260;22580;-77
2024/01/17 11:03:28;;;;;;;36.90;21.30;;;;;;;-0.88;74.99;97271.64;226176;1257;23064;-77
2024/01/17 11:08:33;;;;;;;36.50;20.70;;;;;;;-0.77;74.88;97257.05;226217;1264;22536;-78
2024/01/17 11:13:37;;;;;;;38.10;19.20;;;;;;;-0.55;75.35;97248.41;226238;1263;22807;-79
2024/01/17 11:18:45;;;;;;;38.80;20.80;;;;;;;-0.32;75.03;97234.64;226306;1269;25555;-79
2024/01/17 11:24:16;;;;;;;40.90;21.50;;;;;;;-0.06;74.68;97215.13;226065;1258;22537;-79
2024/01/17 11:29:36;;;;;;;34.20;20.00;;;;;;;0.10;73.94;97195.83;226158;1251;24307;-79
2024/01/17 11:34:39;;;;;;;33.60;20.10;;;;;;;0.19;73.77;97190.36;226240;1266;22617;-79
2024/01/17 11:39:42;;;;;;;34.00;19.00;;;;;;;0.29;73.93;97172.73;226472;1272;22566;-77
2024/01/17 11:44:44;;;;;;;32.20;17.70;;;;;;;0.48;73.59;97169.38;226317;1266;22552;-78
2024/01/17 11:49:54;;;;;;;29.50;19.10;;;;;;;0.56;73.25;97159.33;226447;1266;22572;-78
2024/01/17 11:54:56;;;;;;;26.90;17.40;;;;;;;0.74;73.49;97154.68;226380;1258;22554;-78
2024/01/17 12:00:12;;;;;;;37.60;22.70;;;;;;;0.96;73.66;97145.92;226355;1270;22571;-77
2024/01/17 12:05:15;;;;;;;32.20;18.40;;;;;;;1.19;73.48;97129.33;226272;1256;22541;-78
2024/01/17 12:10:17;;;;;;;30.00;17.90;;;;;;;1.39;73.38;97115.66;226257;1269;22533;-78
2024/01/17 12:15:20;;;;;;;32.90;20.00;;;;;;;1.57;72.88;97100.79;226329;1253;22545;-77
2024/01/17 12:20:22;;;;;;;34.60;20.40;;;;;;;1.63;72.11;97092.29;226323;1272;22558;-77
2024/01/17 12:25:24;;;;;;;34.60;20.80;;;;;;;1.73;72.44;97085.41;226292;1266;22582;-76
2024/01/17 12:30:27;;;;;;;31.90;19.60;;;;;;;1.74;71.56;97069.85;226320;1266;22907;-78
2024/01/17 12:35:29;;;;;;;33.60;19.60;;;;;;;1.71;71.70;97060.55;226321;1263;22607;-76
2024/01/17 12:40:32;;;;;;;35.40;19.70;;;;;;;1.87;71.89;97048.40;226402;1251;22862;-76
2024/01/17 12:45:35;;;;;;;32.50;20.00;;;;;;;1.99;71.95;97035.53;226251;1260;24390;-76
2024/01/17 12:50:54;;;;;;;33.90;19.90;;;;;;;2.15;71.90;97023.95;226234;1269;22552;-76
2024/01/17 12:56:00;;;;;;;31.40;19.60;;;;;;;2.13;70.98;97009.13;226360;1250;22641;-78
2024/01/17 13:01:04;;;;;;;30.90;17.60;;;;;;;2.01;70.68;97000.78;226429;1251;22558;-77
2024/01/17 13:06:06;;;;;;;35.60;23.20;;;;;;;1.93;70.54;96996.01;226361;1264;22540;-77
2024/01/17 13:11:17;;;;;;;34.60;20.10;;;;;;;1.87;70.54;96988.95;226346;1266;22589;-78
2024/01/17 13:16:19;;;;;;;29.90;19.00;;;;;;;1.90;70.84;96979.74;226485;1263;22580;-78
2024/01/17 13:21:21;;;;;;;35.40;19.40;;;;;;;1.89;70.74;96974.05;226460;1259;22552;-79
2024/01/17 13:26:23;;;;;;;37.00;20.40;;;;;;;1.88;70.78;96971.39;226279;1270;22691;-80
2024/01/17 13:31:25;;;;;;;34.50;18.90;;;;;;;1.90;70.89;96961.48;226370;1265;22547;-79
2024/01/17 13:36:27;;;;;;;36.60;21.00;;;;;;;1.91;70.72;96948.89;226438;1253;22594;-79
2024/01/17 13:41:31;;;;;;;34.30;20.10;;;;;;;1.88;70.67;96950.41;226430;1272;22583;-79
2024/01/17 13:46:35;;;;;;;35.70;20.10;;;;;;;1.89;70.91;96943.56;226335;1266;22582;-79
2024/01/17 13:51:43;;;;;;;33.40;20.10;;;;;;;1.85;70.92;96928.63;226336;1266;22544;-79
2024/01/17 13:56:52;;;;;;;35.80;21.50;;;;;;;1.70;70.44;96926.95;226265;1254;22556;-79
2024/01/17 14:01:56;;;;;;;36.20;20.90;;;;;;;1.59;70.94;96926.58;226395;1250;22581;-79
2024/01/17 14:06:59;;;;;;;39.30;21.80;;;;;;;1.58;70.88;96915.63;226467;1269;24905;-79
2024/01/17 14:12:05;;;;;;;39.60;22.90;;;;;;;1.57;71.38;96907.56;226306;1266;22607;-83
2024/01/17 14:17:07;;;;;;;40.60;23.80;;;;;;;1.54;71.33;96893.54;226300;1265;24176;-86
2024/01/17 14:22:09;;;;;;;36.70;22.30;;;;;;;1.45;71.09;96878.23;226095;1251;22567;-77
2024/01/17 14:27:11;;;;;;;43.40;23.60;;;;;;;1.32;70.82;96870.41;226342;1257;22966;-82
2024/01/17 14:32:13;;;;;;;47.20;25.30;;;;;;;1.22;71.31;96861.48;226188;1259;24912;-78
2024/01/17 14:37:16;;;;;;;41.10;23.50;;;;;;;1.05;71.11;96853.05;226309;1269;22550;-78
2024/01/17 14:42:21;;;;;;;36.00;22.00;;;;;;;0.89;71.37;96846.23;226203;1266;22921;-75
2024/01/17 14:47:23;;;;;;;40.30;22.90;;;;;;;0.75;71.48;96841.77;226030;1266;25446;-76
2024/01/17 14:52:25;;;;;;;36.70;20.90;;;;;;;0.61;71.72;96839.02;226123;1260;22601;-76
2024/01/17 14:57:27;;;;;;;38.60;21.80;;;;;;;0.57;72.14;96840.06;226063;1272;23170;-76
2024/01/17 15:02:30;;;;;;;44.70;25.20;;;;;;;0.59;73.08;96843.77;226554;1263;22539;-76
2024/01/17 15:07:32;;;;;;;57.10;30.70;;;;;;;0.67;72.91;96839.42;226428;1269;22926;-76
2024/01/17 15:12:34;;;;;;;61.60;31.60;;;;;;;0.74;73.42;96834.98;226634;1269;22604;-75
2024/01/17 15:17:37;;;;;;;60.00;35.50;;;;;;;0.78;73.28;96821.89;226454;1272;22552;-75
2024/01/17 15:22:41;;;;;;;80.10;43.20;;;;;;;0.82;73.58;96807.46;226672;1253;22548;-76
2024/01/17 15:27:43;;;;;;;72.90;40.50;;;;;;;0.89;73.52;96796.36;226698;1268;24729;-75
2024/01/17 15:32:45;;;;;;;77.70;40.00;;;;;;;0.92;73.85;96791.61;226809;1272;22552;-75
2024/01/17 15:37:48;;;;;;;83.40;43.00;;;;;;;0.92;73.78;96792.13;226777;1269;22588;-75
2024/01/17 15:42:51;;;;;;;87.20;45.50;;;;;;;0.96;73.87;96789.05;226705;1269;137617;-77
2024/01/17 15:47:52;;;;;;;88.40;45.30;;;;;;;1.00;74.20;96779.08;226808;1270;24250;-75
2024/01/17 15:52:55;;;;;;;83.50;42.30;;;;;;;1.00;74.04;96770.11;226748;1266;22544;-75
2024/01/17 15:57:57;;;;;;;104.10;51.20;;;;;;;0.99;73.76;96763.65;226842;1269;22571;-75
2024/01/17 16:02:59;;;;;;;118.10;62.20;;;;;;;0.97;74.15;96753.10;226642;1270;22529;-77
2024/01/17 16:08:03;;;;;;;122.00;62.40;;;;;;;0.98;74.01;96748.80;226791;1269;23546;-75
2024/01/17 16:13:05;;;;;;;103.20;54.10;;;;;;;0.99;73.96;96747.42;226845;1269;22540;-76
2024/01/17 16:18:07;;;;;;;90.20;48.10;;;;;;;1.02;74.16;96741.59;226801;1269;24246;-76
2024/01/17 16:23:09;;;;;;;73.50;39.70;;;;;;;1.06;74.22;96736.95;226829;1267;22541;-75
2024/01/17 16:28:12;;;;;;;72.00;39.60;;;;;;;1.12;74.73;96741.71;226830;1266;22533;-76
2024/01/17 16:33:14;;;;;;;87.10;43.80;;;;;;;1.18;74.66;96738.96;226666;1267;22537;-75
2024/01/17 16:38:16;;;;;;;93.80;48.10;;;;;;;1.23;74.56;96735.70;226836;1269;23146;-76
2024/01/17 16:43:18;;;;;;;72.10;36.60;;;;;;;1.27;74.87;96734.35;226634;1272;22628;-77
2024/01/17 16:48:20;;;;;;;67.70;36.10;;;;;;;1.30;74.86;96730.72;226800;1269;22541;-76
2024/01/17 16:53:24;;;;;;;56.50;31.00;;;;;;;1.34;75.23;96725.64;226605;1270;25032;-76
2024/01/17 16:58:26;;;;;;;51.90;30.50;;;;;;;1.38;75.21;96718.77;226588;1269;22537;-76
2024/01/17 17:03:28;;;;;;;53.20;29.70;;;;;;;1.41;75.17;96707.64;226735;1269;22558;-76
2024/01/17 17:08:30;;;;;;;50.20;27.30;;;;;;;1.43;75.00;96691.98;226758;1270;22544;-77
2024/01/17 17:13:32;;;;;;;52.10;28.60;;;;;;;1.45;75.21;96680.33;226610;1270;22586;-77
2024/01/17 17:18:34;;;;;;;58.00;31.30;;;;;;;1.47;75.30;96671.95;226543;1269;22901;-76
2024/01/17 17:23:37;;;;;;;73.30;37.40;;;;;;;1.49;75.19;96663.02;226550;1272;22536;-77
2024/01/17 17:28:39;;;;;;;100.30;50.30;;;;;;;1.50;75.45;96647.93;226816;1253;22547;-76
2024/01/17 17:33:41;;;;;;;102.10;53.70;;;;;;;1.50;75.34;96645.26;226825;1266;22540;-76
2024/01/17 17:38:44;;;;;;;101.70;53.90;;;;;;;1.49;75.66;96638.04;226655;1267;22593;-77
2024/01/17 17:43:46;;;;;;;96.90;49.60;;;;;;;1.50;75.75;96627.55;226610;1269;22549;-76
2024/01/17 17:48:48;;;;;;;86.30;45.00;;;;;;;1.51;75.92;96621.10;226814;1268;22584;-76
2024/01/17 17:53:52;;;;;;;69.10;36.90;;;;;;;1.54;76.11;96621.33;226812;1270;22541;-76
2024/01/17 17:58:54;;;;;;;66.00;36.90;;;;;;;1.54;76.21;96613.68;226573;1272;23031;-76
2024/01/17 18:03:57;;;;;;;65.00;34.50;;;;;;;1.52;75.83;96604.09;226738;1266;22538;-77
2024/01/17 18:09:00;;;;;;;80.30;43.70;;;;;;;1.41;75.79;96597.54;226558;1272;22936;-77
2024/01/17 18:14:02;;;;;;;105.10;51.80;;;;;;;1.38;76.11;96589.61;226848;1268;22550;-77
2024/01/17 18:19:04;;;;;;;99.20;51.10;;;;;;;1.37;76.11;96575.44;226596;1271;23443;-76
2024/01/17 18:24:07;;;;;;;87.90;46.00;;;;;;;1.37;76.19;96561.39;226746;1262;22671;-76
2024/01/17 18:29:09;;;;;;;79.00;40.80;;;;;;;1.38;76.45;96541.19;226553;1271;22544;-78
2024/01/17 18:34:12;;;;;;;72.40;37.50;;;;;;;1.39;76.22;96519.91;226794;1270;27194;-77
2024/01/17 18:39:15;;;;;;;72.20;39.40;;;;;;;1.37;76.17;96512.34;226788;1269;22553;-77
2024/01/17 18:44:20;;;;;;;73.10;41.80;;;;;;;1.37;76.42;96494.99;226800;1267;22578;-77
2024/01/17 18:49:23;;;;;;;83.90;45.00;;;;;;;1.37;76.89;96493.45;226790;1252;22692;-76
2024/01/17 18:54:26;;;;;;;82.30;44.10;;;;;;;1.37;76.94;96481.44;226578;1271;22945;-76
2024/01/17 18:59:28;;;;;;;75.60;41.70;;;;;;;1.38;77.06;96475.84;226753;1269;25280;-76
2024/01/17 19:04:30;;;;;;;67.30;37.00;;;;;;;1.41;77.44;96449.98;226785;1266;22523;-76
2024/01/17 19:09:33;;;;;;;70.40;36.50;;;;;;;1.45;77.42;96449.62;226809;1263;22544;-77
2024/01/17 19:14:35;;;;;;;62.90;33.00;;;;;;;1.46;77.47;96439.66;226653;1256;22560;-76
2024/01/17 19:19:38;;;;;;;56.70;32.00;;;;;;;1.49;78.03;96430.20;226784;1269;22577;-76
2024/01/17 19:24:41;;;;;;;66.50;36.30;;;;;;;1.54;78.10;96431.05;226785;1269;22550;-77
2024/01/17 19:29:43;;;;;;;64.60;34.20;;;;;;;1.57;78.33;96421.84;226817;1270;24234;-76
2024/01/17 19:34:47;;;;;;;64.60;33.10;;;;;;;1.58;78.46;96423.42;226591;1272;22570;-77
2024/01/17 19:39:49;;;;;;;74.80;39.70;;;;;;;1.55;78.23;96396.05;226898;1267;22614;-76
2024/01/17 19:44:51;;;;;;;77.00;42.30;;;;;;;1.51;78.30;96376.01;226624;1272;22536;-77
2024/01/17 19:49:53;;;;;;;79.50;42.60;;;;;;;1.49;78.25;96388.20;226750;1269;22598;-77
2024/01/17 19:54:55;;;;;;;83.80;43.70;;;;;;;1.48;78.76;96381.52;226552;1269;25609;-76
2024/01/17 19:59:57;;;;;;;81.80;45.30;;;;;;;1.47;78.57;96369.83;226638;1272;23629;-75
2024/01/17 20:04:59;;;;;;;85.20;43.40;;;;;;;1.49;78.78;96342.80;226594;1272;23013;-76
2024/01/17 20:10:04;;;;;;;93.00;46.90;;;;;;;1.52;78.95;96322.04;226789;1270;22916;-76
2024/01/17 20:15:08;;;;;;;107.70;53.10;;;;;;;1.55;79.01;96304.27;226614;1272;22546;-75
2024/01/17 20:20:11;;;;;;;111.30;53.30;;;;;;;1.55;79.30;96301.54;226848;1271;22555;-76
2024/01/17 20:25:16;;;;;;;99.80;49.20;;;;;;;1.55;79.42;96324.95;226771;1270;22474;-75
2024/01/17 20:30:20;;;;;;;95.30;48.10;;;;;;;1.51;79.48;96325.73;226620;1270;24253;-77
2024/01/17 20:35:22;;;;;;;101.80;52.50;;;;;;;1.49;79.62;96299.42;226683;1255;22574;-77
2024/01/17 20:40:24;;;;;;;91.10;45.20;;;;;;;1.45;79.69;96295.77;226607;1271;22722;-75
2024/01/17 20:45:26;;;;;;;99.50;52.80;;;;;;;1.46;79.71;96273.52;226771;1269;22623;-76
2024/01/17 20:50:28;;;;;;;91.20;47.50;;;;;;;1.49;80.23;96260.76;226609;1272;22594;-75
2024/01/17 20:55:33;;;;;;;90.60;47.50;;;;;;;1.48;80.00;96244.23;226634;1272;27245;-76
2024/01/17 21:00:35;;;;;;;97.80;48.70;;;;;;;1.50;80.43;96239.34;226784;1272;22590;-77
2024/01/17 21:05:37;;;;;;;90.80;49.70;;;;;;;1.56;80.43;96243.70;226776;1270;24390;-77
2024/01/17 21:10:40;;;;;;;87.80;45.30;;;;;;;1.65;80.63;96228.56;226562;1272;22568;-76
2024/01/17 21:15:42;;;;;;;80.60;42.90;;;;;;;1.73;80.59;96210.90;226777;1269;25226;-77
2024/01/17 21:20:44;;;;;;;83.20;44.50;;;;;;;1.79;80.70;96206.27;226769;1270;22598;-76
2024/01/17 21:25:46;;;;;;;80.10;42.60;;;;;;;1.84;80.88;96191.90;226796;1269;23230;-76
2024/01/17 21:30:48;;;;;;;77.30;41.20;;;;;;;1.90;80.90;96174.74;226830;1267;22582;-76
2024/01/17 21:35:49;;;;;;;69.30;37.10;;;;;;;1.95;80.90;96182.74;226787;1270;22535;-78
2024/01/17 21:40:52;;;;;;;70.90;38.70;;;;;;;1.99;80.95;96185.80;226750;1270;22622;-76
2024/01/17 21:45:55;;;;;;;66.50;34.40;;;;;;;2.04;80.87;96187.91;226832;1267;22548;-75
2024/01/17 21:50:57;;;;;;;65.40;35.10;;;;;;;2.08;80.89;96191.70;226758;1266;22543;-76
2024/01/17 21:55:59;;;;;;;75.30;38.00;;;;;;;2.11;81.16;96184.52;226843;1268;22555;-75
2024/01/17 22:01:01;;;;;;;75.30;38.80;;;;;;;2.12;81.12;96179.89;226800;1270;23111;-75
2024/01/17 22:06:08;;;;;;;74.40;39.70;;;;;;;2.11;80.89;96178.80;226872;1272;22568;-76
2024/01/17 22:11:11;;;;;;;76.40;40.70;;;;;;;2.10;81.23;96153.91;226586;1272;22557;-75
2024/01/17 22:16:13;;;;;;;73.60;40.60;;;;;;;2.15;81.33;96131.45;226815;1269;22545;-76
2024/01/17 22:21:14;;;;;;;67.70;36.40;;;;;;;2.18;81.10;96121.48;226765;1269;22542;-76
2024/01/17 22:26:17;;;;;;;59.30;34.20;;;;;;;2.23;81.46;96120.95;226748;1270;24247;-76
2024/01/17 22:31:23;;;;;;;54.70;30.40;;;;;;;2.27;81.48;96134.13;226598;1270;22560;-76
2024/01/17 22:36:25;;;;;;;53.70;29.40;;;;;;;2.32;81.42;96133.09;226786;1269;22595;-76
2024/01/17 22:41:27;;;;;;;50.80;29.10;;;;;;;2.36;81.57;96127.09;226788;1268;22548;-75
2024/01/17 22:46:30;;;;;;;52.80;29.70;;;;;;;2.41;81.35;96120.98;226795;1269;22821;-75
2024/01/17 22:51:31;;;;;;;53.10;30.30;;;;;;;2.44;81.93;96118.77;226577;1272;22552;-74
2024/01/17 22:56:37;;;;;;;48.10;27.50;;;;;;;2.48;81.44;96105.39;226653;1272;22556;-75
2024/01/17 23:01:39;;;;;;;50.80;28.00;;;;;;;2.52;81.65;96101.36;226938;1269;22741;-76
2024/01/17 23:06:42;;;;;;;45.10;27.10;;;;;;;2.58;82.09;96098.63;226733;1272;22579;-75